createdAt,value
2023-03-05T00:01:43.743Z,-4.64
2023-03-05T00:04:13.935Z,-4.70
2023-03-05T00:06:44.600Z,-4.78
2023-03-05T00:09:12.974Z,-4.84
2023-03-05T00:11:42.370Z,-4.88
2023-03-05T00:14:11.263Z,-4.92
2023-03-05T00:16:39.834Z,-4.98
2023-03-05T00:19:14.904Z,-5.00
2023-03-05T00:21:43.554Z,-5.02
2023-03-05T00:24:14.804Z,-5.10
2023-03-05T00:26:44.932Z,-5.17
2023-03-05T00:29:15.859Z,-5.22
2023-03-05T00:31:48.642Z,-5.25
2023-03-05T00:34:18.532Z,-5.27
2023-03-05T00:36:52.066Z,-5.30
2023-03-05T00:39:22.172Z,-5.29
2023-03-05T00:41:50.697Z,-5.34
2023-03-05T00:44:19.440Z,-5.40
2023-03-05T00:46:48.527Z,-5.44
2023-03-05T00:49:22.488Z,-5.45
2023-03-05T00:51:51.028Z,-5.43
2023-03-05T00:54:19.611Z,-5.46
2023-03-05T00:56:49.425Z,-5.51
2023-03-05T00:59:18.113Z,-5.55
2023-03-05T01:01:46.878Z,-5.61
2023-03-05T01:04:16.933Z,-5.62
2023-03-05T01:06:47.028Z,-5.62
2023-03-05T01:09:16.525Z,-5.61
2023-03-05T01:11:45.024Z,-5.59
2023-03-05T01:14:13.990Z,-5.56
2023-03-05T01:16:42.470Z,-5.52
2023-03-05T01:19:13.972Z,-5.48
2023-03-05T01:21:42.611Z,-5.47
2023-03-05T01:24:15.690Z,-5.44
2023-03-05T01:26:47.575Z,-5.43
2023-03-05T01:29:16.745Z,-5.41
2023-03-05T01:31:45.279Z,-5.40
2023-03-05T01:34:14.137Z,-5.39
2023-03-05T01:36:50.591Z,-5.41
2023-03-05T01:39:19.167Z,-5.06
2023-03-05T01:41:47.540Z,-4.48
2023-03-05T01:44:27.329Z,-4.30
2023-03-05T01:46:55.574Z,-4.42
2023-03-05T01:49:28.346Z,-4.57
2023-03-05T01:52:18.259Z,-4.79
2023-03-05T01:55:03.931Z,-4.96
2023-03-05T01:57:38.532Z,-5.09
2023-03-05T02:00:10.333Z,-5.23
2023-03-05T02:02:48.507Z,-5.31
2023-03-05T02:05:27.317Z,-5.35
2023-03-05T02:07:56.991Z,-5.43
2023-03-05T02:10:38.755Z,-5.52
2023-03-05T02:13:13.969Z,-5.56
2023-03-05T02:15:42.958Z,-5.60
2023-03-05T02:18:13.426Z,-5.68
2023-03-05T02:20:48.040Z,-5.72
2023-03-05T02:23:17.102Z,-5.76
2023-03-05T02:25:45.906Z,-5.79
2023-03-05T02:28:20.719Z,-5.78
2023-03-05T02:30:50.633Z,-5.40
2023-03-05T02:33:19.856Z,-4.83
2023-03-05T02:35:51.051Z,-4.78
2023-03-05T02:38:21.165Z,-4.82
2023-03-05T02:40:49.877Z,-4.99
2023-03-05T02:43:18.513Z,-5.15
2023-03-05T02:45:47.514Z,-5.28
2023-03-05T02:48:15.938Z,-5.39
2023-03-05T02:50:44.956Z,-5.47
2023-03-05T02:53:14.446Z,-5.57
2023-03-05T02:55:47.084Z,-5.65
2023-03-05T02:58:15.725Z,-5.73
2023-03-05T03:00:46.964Z,-5.78
2023-03-05T03:03:15.497Z,-5.86
2023-03-05T03:05:44.050Z,-5.90
2023-03-05T03:08:12.898Z,-5.81
2023-03-05T03:10:44.343Z,-5.17
2023-03-05T03:13:12.859Z,-4.87
2023-03-05T03:15:41.307Z,-4.92
2023-03-05T03:18:09.887Z,-5.06
2023-03-05T03:20:39.410Z,-5.23
2023-03-05T03:23:11.254Z,-5.38
2023-03-05T03:25:39.639Z,-5.49
2023-03-05T03:28:08.134Z,-5.63
2023-03-05T03:30:38.580Z,-5.73
2023-03-05T03:33:07.622Z,-5.77
2023-03-05T03:35:36.200Z,-5.85
2023-03-05T03:38:04.903Z,-5.96
2023-03-05T03:40:33.429Z,-6.02
2023-03-05T03:43:02.483Z,-6.03
2023-03-05T03:45:31.063Z,-5.61
2023-03-05T03:47:59.550Z,-4.98
2023-03-05T03:50:28.031Z,-4.88
2023-03-05T03:52:56.708Z,-5.01
2023-03-05T03:55:28.294Z,-5.20
2023-03-05T03:57:56.742Z,-5.36
2023-03-05T04:00:25.328Z,-5.50
2023-03-05T04:02:53.787Z,-5.67
2023-03-05T04:05:22.527Z,-5.79
2023-03-05T04:07:51.674Z,-5.92
2023-03-05T04:10:20.385Z,-6.01
2023-03-05T04:12:49.811Z,-6.07
2023-03-05T04:15:21.431Z,-6.13
2023-03-05T04:17:49.818Z,-6.17
2023-03-05T04:20:18.290Z,-6.24
2023-03-05T04:22:50.115Z,-6.08
2023-03-05T04:25:18.853Z,-5.37
2023-03-05T04:27:55.610Z,-5.05
2023-03-05T04:30:43.977Z,-5.17
2023-03-05T04:33:14.484Z,-5.35
2023-03-05T04:35:43.049Z,-5.52
2023-03-05T04:38:16.904Z,-5.71
2023-03-05T04:40:46.169Z,-5.82
2023-03-05T04:43:14.442Z,-5.92
2023-03-05T04:45:44.082Z,-6.01
2023-03-05T04:48:12.943Z,-6.09
2023-03-05T04:50:42.555Z,-6.16
2023-03-05T04:53:11.130Z,-6.21
2023-03-05T04:55:40.631Z,-6.25
2023-03-05T04:58:09.133Z,-6.28
2023-03-05T05:08:24.541Z,-4.82
2023-03-05T05:11:00.961Z,-4.86
2023-03-05T05:13:31.128Z,-5.01
2023-03-05T05:15:59.852Z,-5.20
2023-03-05T05:18:28.439Z,-5.29
2023-03-05T05:20:58.114Z,-5.40
2023-03-05T05:23:27.418Z,-5.46
2023-03-05T05:26:02.345Z,-5.51
2023-03-05T05:28:31.591Z,-5.49
2023-03-05T05:31:00.132Z,-5.40
2023-03-05T05:33:28.702Z,-5.32
2023-03-05T05:35:58.175Z,-5.27
2023-03-05T05:38:27.813Z,-5.20
2023-03-05T05:41:05.110Z,-5.13
2023-03-05T05:43:33.617Z,-5.08
2023-03-05T05:46:07.077Z,-5.04
2023-03-05T05:48:36.191Z,-5.02
2023-03-05T05:51:08.290Z,-5.02
2023-03-05T05:53:37.192Z,-5.02
2023-03-05T05:56:09.433Z,-5.02
2023-03-05T05:58:52.323Z,-5.01
2023-03-05T06:01:28.398Z,-4.99
2023-03-05T06:03:58.032Z,-4.96
2023-03-05T06:06:27.854Z,-4.96
2023-03-05T06:08:56.493Z,-4.87
2023-03-05T06:11:24.968Z,-4.84
2023-03-05T06:13:53.960Z,-4.83
2023-03-05T06:16:24.822Z,-4.78
2023-03-05T06:18:53.274Z,-4.70
2023-03-05T06:21:22.779Z,-4.63
2023-03-05T06:23:51.776Z,-4.56
2023-03-05T06:26:24.447Z,-4.48
2023-03-05T06:28:55.038Z,-4.41
2023-03-05T06:31:27.269Z,-4.47
2023-03-05T06:34:01.437Z,-4.36
2023-03-05T06:36:30.496Z,-4.23
2023-03-05T06:38:59.137Z,-4.24
2023-03-05T06:41:29.732Z,-4.12
2023-03-05T06:44:04.959Z,-3.96
2023-03-05T06:46:35.003Z,-3.94
2023-03-05T06:49:04.133Z,-3.94
2023-03-05T06:51:34.771Z,-3.82
2023-03-05T06:54:11.880Z,-3.81
2023-03-05T06:56:42.676Z,-3.95
2023-03-05T06:59:12.237Z,-3.99
2023-03-05T07:01:44.180Z,-3.70
2023-03-05T07:04:13.253Z,-3.63
2023-03-05T07:06:45.207Z,-3.58
2023-03-05T07:09:15.412Z,-3.48
2023-03-05T07:11:43.705Z,-3.22
2023-03-05T07:14:13.091Z,-3.15
2023-03-05T07:16:42.709Z,-3.15
2023-03-05T07:19:15.851Z,-2.84
2023-03-05T07:21:44.681Z,-2.63
2023-03-05T07:24:14.065Z,-2.53
2023-03-05T07:26:42.939Z,-2.54
2023-03-05T07:29:11.555Z,-2.42
2023-03-05T07:31:40.180Z,-2.32
2023-03-05T07:34:10.070Z,-2.17
2023-03-05T07:36:42.546Z,-2.09
2023-03-05T07:39:12.077Z,-1.92
2023-03-05T07:41:40.447Z,-1.95
2023-03-05T07:44:09.911Z,-1.96
2023-03-05T07:46:38.306Z,-1.87
2023-03-05T07:49:06.804Z,-1.95
2023-03-05T07:51:36.082Z,-2.08
2023-03-05T07:54:04.691Z,-1.98
2023-03-05T07:56:35.640Z,-2.00
2023-03-05T07:59:09.016Z,-2.06
2023-03-05T08:01:38.132Z,-1.87
2023-03-05T08:04:07.344Z,-1.59
2023-03-05T08:06:35.795Z,-1.50
2023-03-05T08:09:06.944Z,-1.40
2023-03-05T08:11:37.048Z,-1.45
2023-03-05T08:14:06.430Z,-1.23
2023-03-05T08:16:34.736Z,-1.23
2023-03-05T08:19:08.529Z,-1.07
2023-03-05T08:21:37.605Z,-0.99
2023-03-05T08:24:07.839Z,-0.94
2023-03-05T08:26:38.667Z,-0.90
2023-03-05T08:29:08.263Z,-0.78
2023-03-05T08:31:45.553Z,-0.69
2023-03-05T08:34:14.374Z,-0.61
2023-03-05T08:36:42.824Z,-0.56
2023-03-05T08:39:11.407Z,-0.49
2023-03-05T08:41:40.305Z,-0.37
2023-03-05T08:44:12.773Z,-0.28
2023-03-05T08:46:42.352Z,-0.12
2023-03-05T08:49:10.988Z,0.05
2023-03-05T08:51:40.061Z,0.19
2023-03-05T08:54:09.269Z,0.02
2023-03-05T08:56:38.985Z,-0.06
2023-03-05T08:59:08.883Z,0.16
2023-03-05T09:01:37.218Z,0.13
2023-03-05T09:04:07.093Z,0.13
2023-03-05T09:06:39.549Z,0.06
2023-03-05T09:09:08.748Z,0.28
2023-03-05T09:11:38.382Z,0.21
2023-03-05T09:14:06.938Z,0.34
2023-03-05T09:16:41.278Z,0.73
2023-03-05T09:19:12.924Z,0.98
2023-03-05T09:21:42.115Z,1.07
2023-03-05T09:24:11.975Z,1.19
2023-03-05T09:26:42.411Z,1.19
2023-03-05T09:29:10.716Z,1.16
2023-03-05T09:31:39.975Z,1.00
2023-03-05T09:34:09.460Z,1.03
2023-03-05T09:36:38.123Z,0.66
2023-03-05T09:39:07.609Z,0.40
2023-03-05T09:41:56.979Z,0.32
2023-03-05T09:44:28.634Z,0.56
2023-03-05T09:47:10.120Z,0.55
2023-03-05T09:49:58.161Z,0.41
2023-03-05T09:52:35.143Z,0.70
2023-03-05T09:55:04.594Z,0.76
2023-03-05T09:57:50.591Z,0.87
2023-03-05T10:01:03.865Z,0.67
2023-03-05T10:03:57.160Z,0.37
2023-03-05T10:06:52.959Z,0.73
2023-03-05T10:10:07.717Z,0.89
2023-03-05T10:12:42.938Z,0.68
2023-03-05T10:15:16.990Z,0.30
2023-03-05T10:17:49.130Z,0.42
2023-03-05T10:20:26.654Z,0.62
2023-03-05T10:22:59.418Z,0.98
2023-03-05T10:25:40.280Z,1.02
2023-03-05T10:28:18.007Z,1.26
2023-03-05T10:31:07.960Z,1.42
2023-03-05T10:33:49.353Z,1.11
2023-03-05T10:36:30.112Z,0.98
2023-03-05T10:39:05.856Z,0.41
2023-03-05T10:41:48.583Z,0.94
2023-03-05T10:44:26.682Z,1.01
2023-03-05T10:46:57.179Z,1.25
2023-03-05T10:49:29.174Z,1.12
2023-03-05T10:52:37.079Z,1.10
2023-03-05T10:55:16.805Z,1.17
2023-03-05T10:57:46.534Z,1.31
2023-03-05T11:00:23.213Z,1.17
2023-03-05T11:03:02.250Z,1.21
2023-03-05T11:05:37.265Z,1.40
2023-03-05T11:08:30.327Z,1.75
2023-03-05T11:11:16.904Z,1.74
2023-03-05T11:13:57.205Z,1.47
2023-03-05T11:16:34.284Z,1.42
2023-03-05T11:19:16.397Z,0.80
2023-03-05T11:21:46.708Z,1.15
2023-03-05T11:24:18.569Z,1.19
2023-03-05T11:26:51.020Z,0.83
2023-03-05T11:29:32.133Z,0.71
2023-03-05T11:32:19.771Z,1.03
2023-03-05T11:34:48.313Z,0.70
2023-03-05T11:37:23.240Z,0.90
2023-03-05T11:40:06.742Z,1.15
2023-03-05T11:42:35.364Z,1.09
2023-03-05T11:45:04.965Z,0.92
2023-03-05T11:47:53.924Z,0.79
2023-03-05T11:50:30.937Z,1.00
2023-03-05T11:53:04.096Z,1.25
2023-03-05T11:55:54.402Z,1.15
2023-03-05T11:58:29.640Z,1.53
2023-03-05T12:00:59.161Z,1.70
2023-03-05T12:03:34.238Z,1.81
2023-03-05T12:06:15.148Z,1.72
2023-03-05T12:08:46.538Z,1.60
2023-03-05T12:11:27.692Z,1.76
2023-03-05T12:14:05.234Z,1.76
2023-03-05T12:16:42.658Z,1.38
2023-03-05T12:19:30.955Z,0.99
2023-03-05T12:21:59.837Z,0.96
2023-03-05T12:24:28.642Z,1.09
2023-03-05T12:27:07.268Z,0.98
2023-03-05T12:29:52.276Z,1.30
2023-03-05T12:32:31.695Z,1.44
2023-03-05T12:35:19.797Z,1.24
2023-03-05T12:37:49.670Z,1.18
2023-03-05T12:40:24.752Z,1.20
2023-03-05T12:43:00.372Z,1.01
2023-03-05T12:45:39.853Z,1.03
2023-03-05T12:48:12.950Z,0.74
2023-03-05T12:50:43.398Z,0.65
2023-03-05T12:53:16.908Z,0.87
2023-03-05T12:55:46.058Z,0.95
2023-03-05T12:58:47.549Z,0.96
2023-03-05T13:01:34.910Z,0.98
2023-03-05T13:04:11.848Z,0.86
2023-03-05T13:06:40.535Z,0.71
2023-03-05T13:09:30.064Z,0.47
2023-03-05T13:11:58.461Z,0.38
2023-03-05T13:14:32.527Z,0.51
2023-03-05T13:17:01.074Z,0.53
2023-03-05T13:19:29.766Z,0.50
2023-03-05T13:22:01.145Z,0.62
2023-03-05T13:24:30.202Z,0.57
2023-03-05T13:27:00.244Z,0.40
2023-03-05T13:29:30.859Z,0.65
2023-03-05T13:32:26.515Z,0.95
2023-03-05T13:34:59.653Z,1.05
2023-03-05T13:37:30.825Z,1.20
2023-03-05T13:40:07.517Z,0.98
2023-03-05T13:42:36.894Z,0.73
2023-03-05T13:45:06.952Z,0.53
2023-03-05T13:47:36.092Z,0.38
2023-03-05T13:50:08.097Z,0.29
2023-03-05T13:52:38.391Z,0.10
2023-03-05T13:55:16.978Z,-0.13
2023-03-05T13:57:47.725Z,-0.12
2023-03-05T14:00:32.420Z,-0.21
2023-03-05T14:03:26.716Z,-0.25
2023-03-05T14:05:56.287Z,-0.28
2023-03-05T14:08:27.441Z,-0.30
2023-03-05T14:10:57.207Z,-0.32
2023-03-05T14:13:27.189Z,-0.35
2023-03-05T14:16:14.774Z,-0.38
2023-03-05T14:18:55.349Z,-0.35
2023-03-05T14:21:24.964Z,-0.33
2023-03-05T14:23:55.134Z,-0.30
2023-03-05T14:26:33.312Z,-0.27
2023-03-05T14:29:04.225Z,-0.24
2023-03-05T14:31:39.554Z,-0.26
2023-03-05T14:34:07.955Z,-0.32
2023-03-05T14:36:39.381Z,-0.40
2023-03-05T14:39:19.845Z,-0.45
2023-03-05T14:41:48.986Z,-0.53
2023-03-05T14:44:19.795Z,-0.54
2023-03-05T14:46:49.400Z,-0.59
2023-03-05T14:49:17.871Z,-0.63
2023-03-05T14:51:46.361Z,-0.72
2023-03-05T14:54:21.993Z,-0.88
2023-03-05T14:56:52.820Z,-1.00
2023-03-05T14:59:22.061Z,-1.07
2023-03-05T15:01:51.158Z,-1.10
2023-03-05T15:04:25.964Z,-1.14
2023-03-05T15:06:55.298Z,-1.12
2023-03-05T15:09:23.947Z,-1.12
2023-03-05T15:11:52.629Z,-1.02
2023-03-05T15:14:22.748Z,-1.03
2023-03-05T15:16:51.490Z,-1.01
2023-03-05T15:19:20.728Z,-0.94
2023-03-05T15:21:49.219Z,-1.01
2023-03-05T15:24:21.383Z,-1.12
2023-03-05T15:26:53.447Z,-1.18
2023-03-05T15:29:21.823Z,-1.26
2023-03-05T15:31:53.585Z,-1.40
2023-03-05T15:34:22.158Z,-1.56
2023-03-05T15:36:50.945Z,-1.67
2023-03-05T15:39:19.630Z,-1.75
2023-03-05T15:41:48.314Z,-1.84
2023-03-05T15:44:17.958Z,-1.94
2023-03-05T15:46:47.188Z,-2.04
2023-03-05T15:49:15.609Z,-2.14
2023-03-05T15:51:44.623Z,-2.22
2023-03-05T15:54:15.127Z,-2.34
2023-03-05T15:56:43.705Z,-2.46
2023-03-05T15:59:13.741Z,-2.55
2023-03-05T16:01:46.147Z,-2.64
2023-03-05T16:04:15.824Z,-2.69
2023-03-05T16:06:48.220Z,-2.74
2023-03-05T16:09:18.620Z,-2.80
2023-03-05T16:11:49.540Z,-2.88
2023-03-05T16:14:20.176Z,-2.94
2023-03-05T16:16:49.378Z,-2.99
2023-03-05T16:19:18.163Z,-3.04
2023-03-05T16:21:46.644Z,-3.09
2023-03-05T16:24:15.332Z,-3.15
2023-03-05T16:26:43.924Z,-3.21
2023-03-05T16:29:12.525Z,-3.26
2023-03-05T16:31:43.392Z,-3.31
2023-03-05T16:34:14.576Z,-3.34
2023-03-05T16:36:47.692Z,-3.39
2023-03-05T16:39:21.676Z,-3.45
2023-03-05T16:41:50.362Z,-3.49
2023-03-05T16:44:19.146Z,-3.52
2023-03-05T16:46:53.388Z,-3.55
2023-03-05T16:49:22.156Z,-3.57
2023-03-05T16:51:51.556Z,-3.60
2023-03-05T16:54:22.340Z,-3.63
2023-03-05T16:56:50.774Z,-3.65
2023-03-05T16:59:20.168Z,-3.71
2023-03-05T17:01:48.490Z,-3.75
2023-03-05T17:04:17.071Z,-3.77
2023-03-05T17:06:47.032Z,-3.79
2023-03-05T17:09:24.435Z,-3.80
2023-03-05T17:11:53.742Z,-3.83
2023-03-05T17:14:23.955Z,-3.86
2023-03-05T17:16:52.510Z,-3.89
2023-03-05T17:19:24.726Z,-3.93
2023-03-05T17:21:53.488Z,-3.94
2023-03-05T17:24:22.771Z,-3.95
2023-03-05T17:26:51.890Z,-3.94
2023-03-05T17:29:21.601Z,-3.94
2023-03-05T17:31:53.444Z,-3.94
2023-03-05T17:34:33.377Z,-3.96
2023-03-05T17:37:04.777Z,-4.00
2023-03-05T17:39:34.107Z,-4.04
2023-03-05T17:42:02.945Z,-4.07
2023-03-05T17:44:39.080Z,-4.11
2023-03-05T17:47:08.307Z,-4.12
2023-03-05T17:49:36.674Z,-4.08
2023-03-05T17:52:07.959Z,-4.04
2023-03-05T17:56:11.451Z,-4.03
2023-03-05T17:58:40.336Z,-4.05
2023-03-05T18:01:09.872Z,-4.08
2023-03-05T18:03:40.872Z,-4.11
2023-03-05T18:06:09.350Z,-4.14
2023-03-05T18:08:39.563Z,-4.14
2023-03-05T18:11:08.048Z,-4.13
2023-03-05T18:13:43.288Z,-4.05
2023-03-05T18:16:17.167Z,-3.97
2023-03-05T18:18:46.412Z,-3.98
2023-03-05T18:21:23.623Z,-3.99
2023-03-05T18:23:52.677Z,-4.01
2023-03-05T18:26:21.265Z,-4.00
2023-03-05T18:28:50.977Z,-3.97
2023-03-05T18:31:20.073Z,-3.94
2023-03-05T18:33:50.589Z,-3.93
2023-03-05T18:36:19.271Z,-3.93
2023-03-05T18:38:47.649Z,-3.92
2023-03-05T18:41:21.590Z,-3.88
2023-03-05T18:43:50.774Z,-3.83
2023-03-05T18:46:19.889Z,-3.76
2023-03-05T18:48:49.502Z,-3.74
2023-03-05T18:51:20.120Z,-3.72
2023-03-05T18:53:51.433Z,-3.74
2023-03-05T18:56:21.791Z,-3.74
2023-03-05T18:58:51.277Z,-3.71
2023-03-05T19:01:20.897Z,-3.68
2023-03-05T19:03:50.785Z,-3.65
2023-03-05T19:06:19.177Z,-3.62
2023-03-05T19:08:56.787Z,-3.57
2023-03-05T19:11:28.520Z,-3.54
2023-03-05T19:13:58.741Z,-3.49
2023-03-05T19:16:30.461Z,-3.44
2023-03-05T19:19:20.613Z,-3.40
2023-03-05T19:21:59.831Z,-3.38
2023-03-05T19:24:29.853Z,-3.34
2023-03-05T19:27:01.183Z,-3.31
2023-03-05T19:29:33.229Z,-3.30
2023-03-05T19:32:01.911Z,-3.29
2023-03-05T19:34:31.228Z,-3.27
2023-03-05T19:36:59.520Z,-3.24
2023-03-05T19:39:34.162Z,-3.20
2023-03-05T19:42:02.575Z,-3.17
2023-03-05T19:44:31.190Z,-3.15
2023-03-05T19:46:59.589Z,-3.12
2023-03-05T19:49:28.257Z,-3.10
2023-03-05T19:51:56.635Z,-3.08
2023-03-05T19:54:25.423Z,-3.09
2023-03-05T19:56:55.751Z,-3.07
2023-03-05T19:59:25.347Z,-3.09
2023-03-05T20:01:54.043Z,-3.09
2023-03-05T20:04:23.139Z,-3.08
2023-03-05T20:06:51.721Z,-3.08
2023-03-05T20:09:20.917Z,-3.03
2023-03-05T20:11:51.335Z,-3.01
2023-03-05T20:14:20.165Z,-2.97
2023-03-05T20:16:48.824Z,-2.93
2023-03-05T20:19:18.238Z,-2.91
2023-03-05T20:21:46.596Z,-2.90
2023-03-05T20:24:19.586Z,-2.87
2023-03-05T20:26:48.056Z,-2.84
2023-03-05T20:29:18.390Z,-2.82
2023-03-05T20:31:48.191Z,-2.81
2023-03-05T20:34:18.013Z,-2.82
2023-03-05T20:36:47.409Z,-2.80
2023-03-05T20:39:17.119Z,-2.79
2023-03-05T20:41:48.165Z,-2.81
2023-03-05T20:44:16.944Z,-2.87
2023-03-05T20:47:24.751Z,-2.90
2023-03-05T20:49:56.205Z,-2.91
2023-03-05T20:52:26.226Z,-2.85
2023-03-05T20:54:54.762Z,-2.73
2023-03-05T20:57:23.392Z,-2.66
2023-03-05T20:59:52.172Z,-2.61
2023-03-05T21:02:20.919Z,-2.58
2023-03-05T21:04:49.239Z,-2.56
2023-03-05T21:07:18.063Z,-2.52
2023-03-05T21:09:46.515Z,-2.50
2023-03-05T21:12:14.909Z,-2.48
2023-03-05T21:14:43.917Z,-2.46
2023-03-05T21:17:18.012Z,-2.43
2023-03-05T21:19:46.489Z,-2.41
2023-03-05T21:29:52.173Z,-2.30
2023-03-05T21:32:20.797Z,-2.30
2023-03-05T21:34:49.244Z,-2.30
2023-03-05T21:37:18.020Z,-2.32
2023-03-05T21:39:46.520Z,-2.34
2023-03-05T21:42:15.391Z,-2.36
2023-03-05T21:44:43.829Z,-1.80
2023-03-05T21:47:12.575Z,-1.10
2023-03-05T21:49:41.446Z,-0.92
2023-03-05T21:52:11.958Z,-1.04
2023-03-05T21:54:41.534Z,-1.23
2023-03-05T21:57:10.775Z,-1.50
2023-03-05T21:59:41.519Z,-1.68
2023-03-05T22:02:13.894Z,-1.79
2023-03-05T22:04:44.105Z,-1.89
2023-03-05T22:07:14.263Z,-2.00
2023-03-05T22:09:42.604Z,-2.11
2023-03-05T22:12:30.532Z,-2.19
2023-03-05T22:15:09.070Z,-2.29
2023-03-05T22:17:39.074Z,-2.31
2023-03-05T22:20:08.457Z,-1.76
2023-03-05T22:22:37.172Z,-0.81
2023-03-05T22:25:06.376Z,-0.57
2023-03-05T22:27:35.343Z,-0.64
2023-03-05T22:30:06.952Z,-0.77
2023-03-05T22:32:36.224Z,-0.93
2023-03-05T22:35:06.935Z,-1.10
2023-03-05T22:37:35.328Z,-1.30
2023-03-05T22:40:04.295Z,-1.45
2023-03-05T22:42:33.028Z,-1.56
2023-03-05T22:45:01.683Z,-1.66
2023-03-05T22:47:33.218Z,-1.75
2023-03-05T22:50:02.066Z,-1.80
2023-03-05T22:52:30.700Z,-1.84
2023-03-05T22:54:59.274Z,-1.90
2023-03-05T22:57:27.795Z,-1.96
2023-03-05T22:59:56.747Z,-2.04
2023-03-05T23:02:25.955Z,-2.11
2023-03-05T23:04:57.564Z,-2.15
2023-03-05T23:07:33.069Z,-1.58
2023-03-05T23:10:27.204Z,-0.60
2023-03-05T23:12:57.085Z,-0.33
2023-03-05T23:15:36.273Z,-0.45
2023-03-05T23:18:14.925Z,-0.70
2023-03-05T23:20:43.387Z,-0.92
2023-03-05T23:23:12.696Z,-1.17
2023-03-05T23:25:42.008Z,-1.36
2023-03-05T23:28:10.463Z,-1.47
2023-03-05T23:30:39.771Z,-1.55
2023-03-05T23:33:11.543Z,-1.64
2023-03-05T23:35:41.356Z,-1.72
2023-03-05T23:38:12.806Z,-1.80
2023-03-05T23:40:46.011Z,-1.83
2023-03-05T23:43:14.764Z,-1.17
2023-03-05T23:45:45.593Z,-0.36
2023-03-05T23:48:14.410Z,-0.20
2023-03-05T23:50:43.987Z,-0.31
2023-03-05T23:53:16.562Z,-0.54
2023-03-05T23:55:45.292Z,-0.80
2023-03-05T23:58:15.682Z,-1.01
